createdAt,value
2023-10-02T00:01:38.593Z,20.56
2023-10-02T00:04:43.198Z,20.44
2023-10-02T00:07:47.924Z,20.39
2023-10-02T00:10:50.168Z,20.37
2023-10-02T00:14:12.710Z,20.30
2023-10-02T00:17:17.528Z,20.20
2023-10-02T00:20:24.230Z,20.33
2023-10-02T00:23:27.159Z,20.23
2023-10-02T00:26:29.889Z,20.32
2023-10-02T00:29:32.842Z,20.36
2023-10-02T00:32:41.925Z,20.56
2023-10-02T00:35:53.840Z,20.66
2023-10-02T00:39:00.655Z,20.81
2023-10-02T00:42:17.224Z,20.68
2023-10-02T00:45:26.097Z,20.77
2023-10-02T00:48:35.518Z,20.91
2023-10-02T00:51:38.344Z,20.81
2023-10-02T00:54:41.349Z,20.81
2023-10-02T00:57:47.359Z,20.78
2023-10-02T01:00:54.690Z,20.81
2023-10-02T01:04:14.006Z,20.78
2023-10-02T01:07:18.532Z,20.57
2023-10-02T01:10:22.242Z,20.34
2023-10-02T01:13:31.610Z,20.30
2023-10-02T01:16:38.262Z,20.54
2023-10-02T01:19:57.726Z,20.67
2023-10-02T01:23:16.847Z,20.54
2023-10-02T01:26:20.671Z,20.64
2023-10-02T01:29:24.262Z,20.64
2023-10-02T01:32:27.518Z,20.78
2023-10-02T01:35:30.665Z,20.84
2023-10-02T01:38:36.062Z,20.88
2023-10-02T01:41:39.726Z,20.74
2023-10-02T01:44:56.943Z,20.66
2023-10-02T01:48:00.404Z,20.57
2023-10-02T01:51:17.969Z,20.64
2023-10-02T01:54:24.048Z,20.48
2023-10-02T01:57:31.237Z,20.46
2023-10-02T02:00:36.422Z,20.43
2023-10-02T02:03:44.270Z,20.37
2023-10-02T02:06:54.796Z,20.27
2023-10-02T02:10:01.561Z,20.20
2023-10-02T02:13:08.258Z,20.12
2023-10-02T02:16:16.804Z,20.09
2023-10-02T02:19:19.598Z,20.09
2023-10-02T02:22:27.875Z,20.09
2023-10-02T02:25:31.011Z,20.23
2023-10-02T02:28:45.152Z,20.37
2023-10-02T02:31:47.835Z,20.43
2023-10-02T02:35:02.813Z,20.48
2023-10-02T02:38:15.557Z,20.53
2023-10-02T02:41:20.096Z,20.40
2023-10-02T02:44:37.726Z,20.30
2023-10-02T02:47:52.864Z,20.20
2023-10-02T02:50:55.712Z,20.22
2023-10-02T02:53:58.137Z,20.17
2023-10-02T02:57:02.438Z,20.34
2023-10-02T03:00:28.324Z,20.44
2023-10-02T03:03:43.142Z,20.57
2023-10-02T03:06:45.478Z,20.50
2023-10-02T03:09:48.513Z,20.57
2023-10-02T03:12:53.263Z,20.60
2023-10-02T03:15:56.250Z,20.54
2023-10-02T03:18:58.744Z,20.58
2023-10-02T03:22:03.698Z,20.33
2023-10-02T03:25:26.278Z,20.30
2023-10-02T03:28:29.151Z,20.20
2023-10-02T03:31:38.712Z,20.15
2023-10-02T03:34:46.604Z,20.03
2023-10-02T03:37:53.121Z,20.05
2023-10-02T03:40:58.780Z,20.08
2023-10-02T03:44:03.132Z,20.17
2023-10-02T03:47:06.751Z,20.17
2023-10-02T03:50:14.061Z,20.34
2023-10-02T03:53:30.447Z,20.44
2023-10-02T03:56:38.912Z,20.41
2023-10-02T03:59:53.658Z,20.16
2023-10-02T04:03:01.826Z,19.96
2023-10-02T04:06:08.029Z,19.93
2023-10-02T04:09:12.893Z,19.83
2023-10-02T04:12:18.913Z,19.96
2023-10-02T04:15:21.036Z,20.03
2023-10-02T04:18:42.974Z,19.99
2023-10-02T04:21:49.378Z,20.00
2023-10-02T04:25:00.281Z,19.90
2023-10-02T04:28:09.757Z,19.87
2023-10-02T04:31:22.000Z,19.85
2023-10-02T04:34:31.307Z,19.85
2023-10-02T04:37:38.018Z,20.06
2023-10-02T04:40:51.678Z,20.10
2023-10-02T04:43:59.816Z,20.08
2023-10-02T04:47:02.479Z,20.16
2023-10-02T04:50:09.464Z,20.09
2023-10-02T04:53:18.268Z,19.83
2023-10-02T04:56:23.710Z,19.76
2023-10-02T04:59:46.209Z,19.65
2023-10-02T05:02:49.675Z,19.78
2023-10-02T05:05:55.888Z,19.93
2023-10-02T05:08:58.677Z,19.86
2023-10-02T05:12:05.853Z,19.65
2023-10-02T05:15:09.400Z,19.55
2023-10-02T05:18:18.203Z,19.47
2023-10-02T05:21:33.113Z,19.61
2023-10-02T05:24:36.295Z,19.71
2023-10-02T05:27:39.572Z,19.81
2023-10-02T05:30:45.518Z,19.83
2023-10-02T05:33:50.162Z,19.73
2023-10-02T05:37:16.524Z,19.79
2023-10-02T05:40:21.147Z,19.78
2023-10-02T05:43:26.492Z,19.69
2023-10-02T05:46:49.931Z,19.51
2023-10-02T05:49:55.156Z,19.72
2023-10-02T05:52:59.497Z,19.59
2023-10-02T05:56:20.586Z,19.54
2023-10-02T05:59:26.679Z,19.73
2023-10-02T06:02:29.825Z,19.90
2023-10-02T06:05:33.416Z,20.09
2023-10-02T06:08:42.095Z,20.32
2023-10-02T06:12:07.145Z,20.41
2023-10-02T06:15:30.843Z,20.56
2023-10-02T06:18:33.626Z,20.60
2023-10-02T06:21:47.703Z,20.36
2023-10-02T06:24:52.621Z,20.10
2023-10-02T06:27:55.100Z,20.34
2023-10-02T06:30:58.347Z,20.53
2023-10-02T06:34:00.403Z,20.58
2023-10-02T06:37:10.190Z,20.50
2023-10-02T06:40:19.174Z,20.66
2023-10-02T06:43:34.125Z,20.41
2023-10-02T06:46:57.180Z,20.16
2023-10-02T06:50:06.047Z,20.32
2023-10-02T06:53:09.173Z,20.60
2023-10-02T06:56:13.687Z,20.84
2023-10-02T06:59:17.668Z,21.02
2023-10-02T07:02:28.774Z,21.15
2023-10-02T07:05:34.539Z,21.21
2023-10-02T07:08:37.473Z,21.18
2023-10-02T07:11:47.107Z,21.17
2023-10-02T07:14:50.167Z,21.28
2023-10-02T07:18:02.269Z,21.35
2023-10-02T07:21:09.182Z,21.38
2023-10-02T07:24:30.192Z,21.45
2023-10-02T07:27:34.172Z,21.45
2023-10-02T07:30:36.547Z,21.55
2023-10-02T07:33:39.136Z,21.59
2023-10-02T07:36:46.278Z,21.65
2023-10-02T07:39:59.742Z,21.66
2023-10-02T07:43:02.583Z,21.66
2023-10-02T07:46:16.495Z,21.66
2023-10-02T07:49:19.108Z,21.67
2023-10-02T07:52:31.911Z,21.72
2023-10-02T07:55:41.209Z,21.83
2023-10-02T07:58:45.106Z,21.46
2023-10-02T08:01:48.209Z,21.12
2023-10-02T08:04:53.467Z,21.08
2023-10-02T08:08:10.171Z,20.99
2023-10-02T08:11:18.651Z,20.90
2023-10-02T08:14:58.496Z,20.85
2023-10-02T08:18:01.004Z,20.83
2023-10-02T08:21:03.654Z,20.71
2023-10-02T08:24:07.584Z,20.74
2023-10-02T08:27:10.280Z,20.84
2023-10-02T08:30:29.639Z,20.83
2023-10-02T08:33:44.008Z,20.80
2023-10-02T08:37:09.888Z,20.77
2023-10-02T08:40:19.676Z,20.74
2023-10-02T08:43:26.802Z,20.88
2023-10-02T08:46:33.997Z,20.80
2023-10-02T08:49:45.230Z,20.97
2023-10-02T08:52:52.995Z,20.99
2023-10-02T08:56:04.072Z,21.12
2023-10-02T08:59:20.475Z,21.14
2023-10-02T09:02:25.113Z,21.15
2023-10-02T09:05:38.013Z,21.09
2023-10-02T09:09:02.776Z,21.07
2023-10-02T09:12:14.045Z,21.11
2023-10-02T09:15:33.717Z,21.18
2023-10-02T09:18:56.368Z,21.19
2023-10-02T09:22:08.342Z,21.22
2023-10-02T09:25:17.198Z,21.34
2023-10-02T09:28:42.630Z,21.37
2023-10-02T09:31:45.821Z,21.48
2023-10-02T09:35:21.455Z,21.50
2023-10-02T09:38:35.415Z,21.46
2023-10-02T09:41:38.508Z,21.49
2023-10-02T09:44:42.156Z,21.60
2023-10-02T09:48:03.260Z,21.96
2023-10-02T09:51:10.784Z,22.16
2023-10-02T09:54:29.953Z,22.32
2023-10-02T09:57:37.726Z,22.41
2023-10-02T10:00:43.437Z,22.47
2023-10-02T10:03:52.081Z,22.32
2023-10-02T10:07:12.004Z,22.21
2023-10-02T10:10:50.580Z,22.23
2023-10-02T10:14:01.030Z,22.25
2023-10-02T10:17:14.471Z,22.39
2023-10-02T10:20:20.854Z,22.30
2023-10-02T10:23:36.226Z,22.37
2023-10-02T10:26:39.637Z,22.43
2023-10-02T10:29:43.805Z,22.39
2023-10-02T10:32:47.365Z,22.45
2023-10-02T10:35:57.217Z,22.54
2023-10-02T10:39:20.368Z,22.51
2023-10-02T10:42:25.475Z,22.57
2023-10-02T10:45:34.979Z,22.55
2023-10-02T10:48:37.425Z,22.60
2023-10-02T10:51:41.851Z,22.64
2023-10-02T10:54:55.689Z,22.67
2023-10-02T10:58:07.075Z,22.65
2023-10-02T11:01:14.939Z,22.69
2023-10-02T11:04:28.388Z,22.68
2023-10-02T11:07:38.780Z,22.64
2023-10-02T11:10:42.905Z,22.55
2023-10-02T11:13:52.831Z,22.54
2023-10-02T11:16:57.262Z,22.54
2023-10-02T11:20:09.048Z,22.71
2023-10-02T11:23:12.207Z,22.94
2023-10-02T11:26:17.550Z,23.14
2023-10-02T11:29:22.910Z,23.25
2023-10-02T11:32:25.312Z,23.36
2023-10-02T11:35:31.806Z,23.22
2023-10-02T11:38:34.779Z,23.11
2023-10-02T11:41:39.189Z,23.14
2023-10-02T11:44:42.005Z,23.15
2023-10-02T11:47:46.852Z,23.29
2023-10-02T11:50:53.028Z,23.29
2023-10-02T11:53:57.859Z,23.33
2023-10-02T11:57:00.521Z,23.41
2023-10-02T12:00:10.436Z,23.38
2023-10-02T12:03:16.247Z,23.33
2023-10-02T12:06:19.516Z,23.35
2023-10-02T12:09:25.082Z,23.41
2023-10-02T12:12:29.302Z,23.38
2023-10-02T12:15:32.162Z,23.42
2023-10-02T12:18:36.257Z,23.49
2023-10-02T12:21:54.328Z,23.55
2023-10-02T12:25:12.095Z,23.52
2023-10-02T12:28:14.587Z,23.56
2023-10-02T12:31:22.212Z,23.55
2023-10-02T12:34:24.685Z,23.52
2023-10-02T12:37:27.493Z,23.53
2023-10-02T12:40:33.370Z,23.55
2023-10-02T12:43:36.698Z,23.62
2023-10-02T12:46:47.330Z,23.62
2023-10-02T12:49:56.059Z,23.60
2023-10-02T12:52:59.024Z,23.63
2023-10-02T12:56:01.923Z,23.60
2023-10-02T12:59:06.096Z,23.56
2023-10-02T13:02:09.338Z,23.65
2023-10-02T13:05:11.895Z,23.67
2023-10-02T13:08:14.972Z,23.73
2023-10-02T13:11:21.647Z,23.76
2023-10-02T13:14:25.227Z,23.81
2023-10-02T13:17:29.389Z,23.90
2023-10-02T13:20:35.302Z,23.93
2023-10-02T13:23:38.563Z,23.94
2023-10-02T13:26:42.602Z,23.99
2023-10-02T13:29:46.689Z,23.90
2023-10-02T13:32:50.383Z,23.94
2023-10-02T13:39:59.058Z,23.92
2023-10-02T13:43:02.347Z,23.92
2023-10-02T13:46:16.444Z,24.01
2023-10-02T13:49:22.945Z,24.03
2023-10-02T14:00:13.130Z,24.30
2023-10-02T14:12:05.172Z,24.51
2023-10-02T14:24:35.959Z,24.64
2023-10-02T14:32:50.779Z,24.65
2023-10-02T14:35:55.306Z,24.64
2023-10-02T14:39:00.037Z,24.64
2023-10-02T14:42:05.962Z,24.67
2023-10-02T14:45:09.011Z,24.67
2023-10-02T14:48:36.017Z,24.67
2023-10-02T14:51:41.611Z,24.69
2023-10-02T14:54:44.929Z,24.71
2023-10-02T14:57:50.632Z,24.69
2023-10-02T15:00:53.733Z,24.72
2023-10-02T15:03:59.583Z,24.75
2023-10-02T15:36:53.270Z,24.69
2023-10-02T15:40:53.140Z,24.45
2023-10-02T15:44:06.048Z,24.51
2023-10-02T15:47:11.304Z,24.52
2023-10-02T15:50:44.730Z,24.52
2023-10-02T15:54:31.473Z,24.28
2023-10-02T15:58:22.833Z,24.18
2023-10-02T16:05:26.378Z,24.27
2023-10-02T16:08:34.505Z,24.25
2023-10-02T16:12:03.305Z,24.27
2023-10-02T16:15:20.319Z,24.21
2023-10-02T16:18:27.707Z,24.22
2023-10-02T16:21:33.317Z,24.24
2023-10-02T16:24:36.168Z,24.21
2023-10-02T16:27:57.454Z,24.17
2023-10-02T16:30:59.846Z,24.14
2023-10-02T16:34:03.305Z,24.14
2023-10-02T16:37:07.051Z,24.13
2023-10-02T16:40:12.489Z,24.09
2023-10-02T16:43:14.943Z,24.04
2023-10-02T16:46:20.666Z,24.04
2023-10-02T16:49:22.922Z,23.96
2023-10-02T16:52:25.696Z,23.94
2023-10-02T16:55:33.825Z,23.96
2023-10-02T16:58:39.109Z,23.92
2023-10-02T17:01:46.052Z,23.89
2023-10-02T17:04:48.748Z,23.69
2023-10-02T17:07:51.846Z,23.52
2023-10-02T17:11:03.848Z,23.52
2023-10-02T17:14:06.213Z,23.41
2023-10-02T17:17:12.129Z,23.12
2023-10-02T17:20:18.889Z,22.60
2023-10-02T17:23:35.413Z,22.07
2023-10-02T17:26:47.114Z,21.72
2023-10-02T17:29:49.659Z,21.34
2023-10-02T17:32:54.611Z,21.09
2023-10-02T17:35:58.578Z,21.02
2023-10-02T17:39:07.836Z,20.61
2023-10-02T17:42:13.696Z,20.27
2023-10-02T17:45:38.878Z,20.00
2023-10-02T17:48:50.290Z,19.86
2023-10-02T17:55:42.219Z,19.58
2023-10-02T17:58:47.023Z,19.52
2023-10-02T18:01:51.376Z,19.57
2023-10-02T18:04:59.438Z,19.62
2023-10-02T18:08:07.383Z,19.66
2023-10-02T18:11:13.952Z,19.61
2023-10-02T18:14:20.968Z,19.58
2023-10-02T18:17:24.924Z,19.73
2023-10-02T18:24:21.175Z,19.42
2023-10-02T18:28:18.297Z,19.52
2023-10-02T18:33:02.056Z,19.81
2023-10-02T18:48:33.369Z,21.39
2023-10-02T18:51:38.982Z,21.42
2023-10-02T18:54:42.277Z,21.52
2023-10-02T18:57:48.793Z,21.83
2023-10-02T19:00:52.095Z,21.82
2023-10-02T19:04:01.918Z,21.72
2023-10-02T19:07:05.165Z,21.41
2023-10-02T19:10:10.026Z,21.34
2023-10-02T19:13:13.191Z,21.46
2023-10-02T19:16:30.870Z,21.41
2023-10-02T19:19:39.887Z,21.22
2023-10-02T19:22:44.319Z,21.18
2023-10-02T19:25:53.317Z,21.05
2023-10-02T19:28:56.987Z,21.09
2023-10-02T19:32:03.938Z,21.28
2023-10-02T19:35:10.166Z,21.35
2023-10-02T19:38:14.790Z,21.48
2023-10-02T19:44:58.146Z,21.94
2023-10-02T19:48:02.253Z,22.12
2023-10-02T19:51:11.194Z,22.60
2023-10-02T19:54:14.281Z,22.83
2023-10-02T19:57:17.772Z,22.81
2023-10-02T20:00:22.405Z,23.06
2023-10-02T20:03:25.030Z,23.14
2023-10-02T20:14:59.616Z,23.39
2023-10-02T20:22:50.120Z,23.50
2023-10-02T20:26:05.780Z,23.56
2023-10-02T20:30:17.153Z,23.59
2023-10-02T21:53:21.406Z,21.86
2023-10-02T21:56:30.925Z,22.18
2023-10-02T21:59:34.547Z,22.10
2023-10-02T22:02:55.053Z,22.13
2023-10-02T22:14:22.398Z,23.12
2023-10-02T22:17:32.568Z,23.29
2023-10-02T22:21:22.868Z,23.38
2023-10-02T22:24:27.974Z,23.52
2023-10-02T22:27:33.673Z,23.59
2023-10-02T22:37:55.429Z,23.69
2023-10-02T22:40:59.861Z,23.71
2023-10-02T22:44:14.690Z,23.76
2023-10-02T22:47:20.070Z,23.76
2023-10-02T22:50:27.446Z,23.74
2023-10-02T22:53:32.347Z,23.79
2023-10-02T22:56:40.192Z,23.86
2023-10-02T23:00:04.594Z,23.87
2023-10-02T23:24:53.906Z,23.84
2023-10-02T23:28:09.146Z,23.81
2023-10-02T23:43:34.442Z,23.70
2023-10-02T23:55:40.686Z,23.73
2023-10-02T23:59:14.119Z,23.74
